Time;durP1;ratioP1;P1;durP2;ratioP2;P2;SDS_P1;SDS_P2;PMS_P1;PMS_P2;Temp;Humidity;BMP_temperature;BMP_pressure;BME280_temperature;BME280_humidity;BME280_pressure;Samples;Min_cycle;Max_cycle;Signal;HPM_P1;HPM_P2
2021/03/13 00:01:51;;;;;;;1.00;1.00;;;7.10;99.90;;;;;;10486687;28;20331;-78
2021/03/13 00:06:53;;;;;;;1.73;1.60;;;7.10;99.90;;;;;;10481910;28;20228;-77
2021/03/13 00:11:56;;;;;;;2.17;1.43;;;7.10;99.90;;;;;;10453155;28;20683;-77
2021/03/13 00:16:57;;;;;;;1.57;1.47;;;7.20;99.90;;;;;;10483255;28;20604;-77
2021/03/13 00:21:59;;;;;;;1.90;1.43;;;7.20;99.90;;;;;;10475059;28;20270;-77
2021/03/13 00:27:02;;;;;;;1.50;1.33;;;7.30;99.90;;;;;;10483333;28;20216;-77
2021/03/13 00:32:04;;;;;;;4.33;2.43;;;7.30;99.90;;;;;;10464291;28;20211;-77
2021/03/13 00:37:06;;;;;;;2.10;1.80;;;7.40;99.90;;;;;;10482741;28;20244;-77
2021/03/13 00:42:09;;;;;;;1.57;1.47;;;7.30;99.90;;;;;;10482468;28;20690;-78
2021/03/13 00:47:11;;;;;;;1.63;1.53;;;7.30;99.90;;;;;;10482662;28;20254;-77
2021/03/13 00:52:13;;;;;;;2.10;1.77;;;7.20;99.90;;;;;;10464544;28;20619;-77
2021/03/13 00:57:16;;;;;;;1.50;1.33;;;7.20;99.90;;;;;;10487533;28;20228;-77
2021/03/13 01:02:18;;;;;;;3.00;1.30;;;7.10;99.90;;;;;;10490328;28;20200;-77
2021/03/13 01:07:19;;;;;;;2.57;2.10;;;7.10;99.90;;;;;;10451178;28;20216;-77
2021/03/13 01:12:22;;;;;;;2.13;1.73;;;7.10;99.90;;;;;;10466826;28;20270;-77
2021/03/13 01:17:27;;;;;;;2.00;2.00;;;7.10;99.90;;;;;;10480554;28;20235;-77
2021/03/13 01:22:31;;;;;;;2.47;2.03;;;7.10;99.90;;;;;;10446086;28;20211;-77
2021/03/13 01:27:35;;;;;;;2.17;2.07;;;7.00;99.90;;;;;;10461903;28;20216;-77
2021/03/13 01:32:36;;;;;;;2.00;2.00;;;6.90;99.90;;;;;;10445404;28;20262;-77
2021/03/13 01:37:39;;;;;;;2.50;2.40;;;6.80;99.90;;;;;;10461948;28;20315;-77
2021/03/13 01:42:44;;;;;;;3.27;3.07;;;6.70;99.90;;;;;;10464737;28;20193;-77
2021/03/13 01:47:51;;;;;;;2.50;2.40;;;6.70;99.90;;;;;;10480829;28;20761;-77
2021/03/13 01:52:59;;;;;;;2.80;2.60;;;6.70;99.90;;;;;;10480927;28;20228;-77
2021/03/13 01:58:08;;;;;;;2.50;2.40;;;6.70;99.90;;;;;;10497581;28;20286;-77
2021/03/13 02:03:19;;;;;;;2.30;2.20;;;6.60;99.90;;;;;;10475388;28;20215;-77
2021/03/13 02:08:27;;;;;;;2.60;2.40;;;6.50;99.90;;;;;;10461777;28;20311;-77
2021/03/13 02:13:33;;;;;;;2.87;2.67;;;6.50;99.90;;;;;;10498156;28;20235;-77
2021/03/13 02:18:41;;;;;;;4.00;2.67;;;6.50;99.90;;;;;;10465148;28;20255;-78
2021/03/13 02:24:01;;;;;;;2.60;2.50;;;6.50;99.90;;;;;;10483148;28;20288;-77
2021/03/13 02:29:25;;;;;;;2.60;2.40;;;6.50;99.90;;;;;;10482503;28;20630;-78
2021/03/13 02:34:34;;;;;;;2.43;2.33;;;6.50;99.90;;;;;;10461385;28;20600;-78
2021/03/13 02:39:38;;;;;;;2.10;2.00;;;6.60;99.90;;;;;;10462520;28;20217;-78
2021/03/13 02:44:46;;;;;;;3.33;2.20;;;6.60;99.90;;;;;;10523233;28;20569;-78
2021/03/13 02:49:56;;;;;;;2.90;2.70;;;6.70;99.90;;;;;;10508478;28;20281;-78
2021/03/13 02:55:05;;;;;;;2.53;2.17;;;6.80;99.90;;;;;;10498406;28;20223;-78
2021/03/13 03:00:14;;;;;;;2.80;2.23;;;6.90;99.90;;;;;;10478155;28;20196;-78
2021/03/13 03:05:18;;;;;;;1.90;1.80;;;6.90;99.90;;;;;;10481608;28;20196;-78
2021/03/13 03:10:22;;;;;;;2.30;1.80;;;7.00;99.90;;;;;;10483421;28;20658;-77
2021/03/13 03:15:26;;;;;;;2.13;1.70;;;7.10;99.90;;;;;;10482847;28;20622;-78
2021/03/13 03:20:31;;;;;;;2.23;1.63;;;7.10;99.90;;;;;;10482367;28;20208;-77
2021/03/13 03:25:32;;;;;;;3.20;1.97;;;7.20;99.90;;;;;;10482157;28;20670;-78
2021/03/13 03:30:35;;;;;;;1.67;1.57;;;7.20;99.90;;;;;;10465319;28;20209;-78
2021/03/13 03:35:39;;;;;;;2.00;1.50;;;7.20;99.90;;;;;;10500559;28;20225;-79
2021/03/13 03:40:42;;;;;;;1.70;1.53;;;7.30;99.90;;;;;;10480683;28;20250;-78
2021/03/13 03:45:51;;;;;;;2.40;1.60;;;7.30;99.90;;;;;;10492593;28;20228;-78
2021/03/13 03:50:53;;;;;;;3.20;2.00;;;7.40;99.90;;;;;;10525462;28;20231;-78
2021/03/13 03:56:03;;;;;;;8.33;2.00;;;7.40;99.90;;;;;;10526233;28;20224;-78
2021/03/13 04:01:07;;;;;;;1.90;1.50;;;7.40;99.90;;;;;;10543228;28;20660;-77
2021/03/13 04:06:12;;;;;;;1.53;1.33;;;7.50;99.90;;;;;;10524883;28;20214;-78
2021/03/13 04:11:17;;;;;;;2.23;2.00;;;7.50;99.90;;;;;;10544341;28;20789;-78
2021/03/13 04:16:20;;;;;;;1.90;1.80;;;7.60;99.90;;;;;;10525562;28;20310;-78
2021/03/13 04:21:22;;;;;;;2.70;1.97;;;7.50;99.90;;;;;;10546052;28;20211;-77
2021/03/13 04:26:25;;;;;;;3.50;1.93;;;7.40;99.90;;;;;;10540364;28;20215;-78
2021/03/13 04:31:30;;;;;;;3.23;1.40;;;7.50;99.90;;;;;;10545699;28;20196;-78
2021/03/13 04:36:32;;;;;;;3.37;1.67;;;7.70;99.90;;;;;;10546840;28;20257;-78
2021/03/13 04:41:36;;;;;;;1.20;1.10;;;7.70;99.90;;;;;;10547774;28;20200;-78
2021/03/13 04:46:39;;;;;;;2.60;1.60;;;7.80;99.90;;;;;;10547032;28;20212;-78
2021/03/13 04:51:40;;;;;;;1.17;1.07;;;7.80;99.90;;;;;;10498284;28;20224;-78
2021/03/13 04:56:42;;;;;;;2.30;1.10;;;7.80;99.90;;;;;;10525100;28;20862;-78
2021/03/13 05:01:45;;;;;;;2.43;1.10;;;7.80;99.90;;;;;;10516535;28;20200;-78
2021/03/13 05:06:47;;;;;;;3.07;1.10;;;7.80;99.90;;;;;;10547570;28;20220;-78
2021/03/13 05:11:48;;;;;;;2.00;1.17;;;7.90;99.90;;;;;;10533950;28;20211;-78
2021/03/13 05:16:51;;;;;;;1.73;1.40;;;8.00;99.90;;;;;;10508236;28;20227;-78
2021/03/13 05:21:53;;;;;;;2.10;1.30;;;8.00;99.80;;;;;;10547835;28;20207;-78
2021/03/13 05:26:55;;;;;;;1.10;1.00;;;8.10;99.90;;;;;;10494641;28;20692;-78
2021/03/13 05:31:58;;;;;;;1.87;1.17;;;8.20;99.50;;;;;;10485780;28;20643;-78
2021/03/13 05:36:59;;;;;;;1.80;1.10;;;8.20;99.30;;;;;;10503023;28;20284;-77
2021/03/13 05:42:02;;;;;;;1.27;1.10;;;8.30;99.40;;;;;;10502691;28;20287;-78
2021/03/13 05:47:05;;;;;;;1.33;1.07;;;8.20;98.90;;;;;;10500644;28;20246;-78
2021/03/13 05:52:07;;;;;;;1.33;1.23;;;8.30;98.80;;;;;;10485468;28;20200;-78
2021/03/13 05:57:11;;;;;;;1.70;1.30;;;8.30;98.20;;;;;;10503280;28;20708;-78
2021/03/13 06:02:14;;;;;;;1.60;1.17;;;8.40;98.80;;;;;;10486212;28;20204;-78
2021/03/13 06:07:19;;;;;;;2.50;1.23;;;8.40;98.20;;;;;;10484621;28;20270;-78
2021/03/13 06:12:22;;;;;;;2.50;1.23;;;8.50;98.50;;;;;;10467753;28;20204;-78
2021/03/13 06:17:26;;;;;;;1.27;1.13;;;8.50;98.10;;;;;;10491900;28;20708;-78
2021/03/13 06:22:36;;;;;;;1.97;1.37;;;8.50;97.50;;;;;;10503362;28;20705;-78
2021/03/13 06:27:38;;;;;;;4.87;1.10;;;8.60;97.10;;;;;;10546888;28;20290;-78
2021/03/13 06:32:41;;;;;;;1.73;1.10;;;8.60;96.60;;;;;;10511313;28;20210;-78
2021/03/13 06:37:42;;;;;;;2.77;1.70;;;8.70;96.50;;;;;;10514334;28;20234;-78
2021/03/13 06:42:44;;;;;;;1.67;1.10;;;8.80;96.90;;;;;;10488310;28;20204;-78
2021/03/13 06:47:47;;;;;;;2.47;1.17;;;8.90;96.10;;;;;;10494403;28;20217;-78
2021/03/13 06:52:51;;;;;;;2.37;1.20;;;8.90;95.90;;;;;;10525623;28;20557;-79
2021/03/13 06:58:05;;;;;;;1.53;1.17;;;9.10;95.40;;;;;;10504466;28;20274;-78
2021/03/13 07:03:10;;;;;;;1.90;1.50;;;9.20;94.80;;;;;;10468332;28;20216;-78
2021/03/13 07:08:25;;;;;;;2.70;1.73;;;9.20;94.30;;;;;;10501043;28;20239;-78
2021/03/13 07:13:37;;;;;;;1.60;1.50;;;9.30;93.90;;;;;;10505142;28;20327;-78
2021/03/13 07:18:39;;;;;;;1.60;1.50;;;9.40;93.90;;;;;;10467349;28;20266;-78
2021/03/13 07:23:43;;;;;;;1.70;1.03;;;9.60;92.90;;;;;;10502761;28;20283;-78
2021/03/13 07:28:45;;;;;;;2.73;1.27;;;9.60;92.90;;;;;;10503679;28;20267;-78
2021/03/13 07:33:48;;;;;;;1.50;1.23;;;9.60;92.40;;;;;;10485764;28;20201;-77
2021/03/13 07:38:51;;;;;;;2.33;1.07;;;9.60;91.80;;;;;;10504071;28;20216;-78
2021/03/13 07:43:54;;;;;;;1.20;0.90;;;9.60;92.40;;;;;;10512757;28;20254;-77
2021/03/13 07:48:58;;;;;;;1.63;1.27;;;9.60;92.40;;;;;;10483761;28;20584;-78
2021/03/13 07:54:02;;;;;;;1.47;1.23;;;9.80;91.70;;;;;;10484516;28;20225;-78
2021/03/13 07:59:04;;;;;;;2.20;1.20;;;9.90;90.80;;;;;;10479952;28;20307;-78
2021/03/13 08:04:06;;;;;;;1.10;1.00;;;10.10;90.10;;;;;;10499440;28;20201;-78
2021/03/13 08:09:23;;;;;;;1.67;1.00;;;10.30;90.00;;;;;;10479786;28;20244;-78
2021/03/13 08:14:31;;;;;;;1.10;0.90;;;10.40;88.70;;;;;;10498640;28;20212;-78
2021/03/13 08:19:38;;;;;;;1.23;1.00;;;10.40;87.30;;;;;;10494346;28;20305;-77
2021/03/13 08:24:45;;;;;;;0.90;0.90;;;10.30;87.40;;;;;;10475145;28;20292;-78
2021/03/13 08:29:52;;;;;;;1.33;0.90;;;10.30;87.70;;;;;;10475296;28;20232;-77
2021/03/13 08:35:06;;;;;;;0.90;0.80;;;10.30;85.80;;;;;;10492953;28;20212;-78
2021/03/13 08:40:21;;;;;;;4.53;1.30;;;10.30;85.50;;;;;;10477064;28;20200;-79
2021/03/13 08:45:23;;;;;;;0.97;0.97;;;10.30;84.80;;;;;;10486761;28;20224;-79
2021/03/13 08:50:54;;;;;;;1.80;1.17;;;10.30;82.70;;;;;;10465235;28;20263;-79
2021/03/13 08:55:56;;;;;;;2.30;1.57;;;10.50;83.30;;;;;;10487916;28;20316;-79
2021/03/13 09:01:13;;;;;;;1.33;1.10;;;10.80;83.50;;;;;;10496368;28;20200;-79
2021/03/13 09:06:16;;;;;;;1.00;0.90;;;11.00;80.10;;;;;;10494344;28;20223;-79
2021/03/13 09:11:26;;;;;;;4.10;1.20;;;11.20;77.70;;;;;;10479281;28;20201;-79
2021/03/13 09:16:33;;;;;;;1.33;1.10;;;11.30;79.60;;;;;;10476766;28;20347;-79
2021/03/13 09:21:50;;;;;;;3.03;1.33;;;11.30;76.20;;;;;;10479408;28;20288;-79
2021/03/13 09:26:54;;;;;;;1.63;0.97;;;11.40;77.80;;;;;;10476375;28;20205;-79
2021/03/13 09:31:57;;;;;;;1.00;1.00;;;11.50;78.20;;;;;;10507005;28;20220;-79
2021/03/13 09:37:09;;;;;;;1.57;1.10;;;11.80;75.90;;;;;;10478110;28;20221;-79
2021/03/13 09:42:14;;;;;;;1.20;1.10;;;11.90;75.80;;;;;;10465178;28;21150;-79
2021/03/13 09:47:22;;;;;;;3.53;1.13;;;12.00;75.60;;;;;;10504787;28;20213;-79
2021/03/13 09:52:27;;;;;;;2.40;1.23;;;12.10;74.10;;;;;;10479339;28;20456;-80
2021/03/13 09:57:28;;;;;;;1.10;1.00;;;12.10;74.20;;;;;;10478726;28;20224;-80
2021/03/13 10:02:30;;;;;;;2.20;1.07;;;12.20;74.50;;;;;;10467502;28;20205;-80
2021/03/13 10:07:38;;;;;;;0.90;0.90;;;12.30;73.70;;;;;;10479963;28;20220;-79
2021/03/13 10:12:43;;;;;;;1.53;1.20;;;12.30;74.20;;;;;;10498345;28;20200;-80
2021/03/13 10:17:57;;;;;;;8.07;1.47;;;12.30;72.90;;;;;;10490299;28;20291;-79
2021/03/13 10:23:09;;;;;;;1.17;1.17;;;12.00;73.10;;;;;;10487191;28;20258;-80
2021/03/13 10:28:12;;;;;;;1.07;1.07;;;12.00;73.40;;;;;;10498333;28;20224;-79
2021/03/13 10:33:15;;;;;;;1.23;1.13;;;12.00;74.60;;;;;;10507382;28;20304;-79
2021/03/13 10:38:19;;;;;;;3.00;0.97;;;12.00;74.50;;;;;;10491739;28;20228;-79
2021/03/13 10:43:23;;;;;;;1.40;1.30;;;12.10;73.70;;;;;;10509862;28;20664;-80
2021/03/13 10:48:25;;;;;;;0.80;0.80;;;12.00;74.10;;;;;;10525585;28;20636;-80
2021/03/13 10:53:33;;;;;;;1.83;1.20;;;11.90;72.80;;;;;;10544370;28;20200;-80
2021/03/13 10:58:37;;;;;;;1.10;1.10;;;11.90;73.60;;;;;;10516822;28;20231;-80
2021/03/13 11:03:38;;;;;;;1.27;1.17;;;11.90;75.20;;;;;;10486608;28;20201;-80
2021/03/13 11:08:41;;;;;;;2.40;1.17;;;11.90;73.70;;;;;;10522134;28;20613;-80
2021/03/13 11:13:42;;;;;;;1.10;0.90;;;11.80;72.20;;;;;;10539964;28;20208;-80
2021/03/13 11:18:44;;;;;;;1.40;0.90;;;11.80;72.40;;;;;;10514710;28;20221;-80
2021/03/13 11:23:46;;;;;;;1.30;0.97;;;11.80;71.90;;;;;;10472928;28;20209;-80
2021/03/13 11:28:48;;;;;;;2.07;1.23;;;11.80;71.20;;;;;;10494304;28;20228;-80
2021/03/13 11:33:50;;;;;;;1.03;1.03;;;11.90;71.80;;;;;;10482028;28;20247;-80
2021/03/13 11:38:53;;;;;;;1.33;1.23;;;12.00;72.20;;;;;;10540267;28;20248;-80
2021/03/13 11:43:54;;;;;;;1.23;1.10;;;12.10;71.10;;;;;;10539422;28;20204;-80
2021/03/13 11:48:56;;;;;;;1.70;1.00;;;12.20;71.10;;;;;;10540974;28;20215;-80
2021/03/13 11:53:59;;;;;;;1.00;1.00;;;12.30;71.10;;;;;;10518833;28;20231;-80
2021/03/13 11:59:00;;;;;;;1.17;1.17;;;12.50;70.70;;;;;;10472920;28;20224;-80
2021/03/13 12:04:02;;;;;;;1.33;1.10;;;12.60;70.20;;;;;;10471568;28;20280;-80
2021/03/13 12:09:05;;;;;;;1.10;0.97;;;12.60;68.70;;;;;;10486709;28;20723;-80
2021/03/13 12:14:09;;;;;;;1.73;1.23;;;12.60;68.90;;;;;;10484520;28;20676;-80
2021/03/13 12:19:14;;;;;;;1.97;1.10;;;12.50;70.00;;;;;;10488018;28;20224;-82
2021/03/13 12:24:18;;;;;;;1.27;1.10;;;12.30;74.40;;;;;;10454358;28;20560;-82
2021/03/13 12:29:19;;;;;;;0.97;0.87;;;12.30;74.50;;;;;;10485631;28;20220;-81
2021/03/13 12:34:21;;;;;;;0.90;0.90;;;12.20;76.00;;;;;;10515281;28;20200;-81
2021/03/13 12:39:24;;;;;;;1.47;0.80;;;12.20;77.00;;;;;;10485669;28;20220;-80
2021/03/13 12:44:25;;;;;;;1.03;1.03;;;12.20;77.10;;;;;;10469600;28;20232;-81
2021/03/13 12:49:27;;;;;;;1.13;1.03;;;12.20;78.30;;;;;;10491938;28;20303;-78
2021/03/13 12:54:30;;;;;;;2.20;1.20;;;12.30;78.10;;;;;;10481977;28;20197;-78
2021/03/13 12:59:31;;;;;;;1.00;0.90;;;12.50;78.60;;;;;;10484866;28;20223;-78
2021/03/13 13:04:33;;;;;;;1.90;1.10;;;12.30;79.90;;;;;;10479909;28;20205;-78
2021/03/13 13:09:35;;;;;;;1.37;0.90;;;12.20;81.90;;;;;;10477960;28;20224;-78
2021/03/13 13:14:37;;;;;;;1.10;1.10;;;11.90;85.30;;;;;;10480237;28;20753;-78
2021/03/13 13:19:39;;;;;;;1.00;1.00;;;11.40;91.00;;;;;;10479671;28;20232;-78
2021/03/13 13:24:41;;;;;;;1.20;1.10;;;10.70;92.60;;;;;;10481731;28;20296;-77
2021/03/13 13:29:43;;;;;;;0.93;0.93;;;10.20;94.50;;;;;;10492520;28;20235;-78
2021/03/13 13:34:45;;;;;;;1.70;1.60;;;9.80;96.00;;;;;;10493412;28;20208;-78
2021/03/13 13:39:48;;;;;;;1.60;1.60;;;9.40;96.60;;;;;;10460357;28;20224;-78
2021/03/13 13:44:50;;;;;;;1.70;1.70;;;9.10;98.10;;;;;;10492697;28;20324;-78
2021/03/13 13:49:51;;;;;;;1.60;1.50;;;8.90;99.10;;;;;;10479999;28;20604;-78
2021/03/13 13:54:54;;;;;;;1.00;1.00;;;8.70;99.70;;;;;;10467620;28;20219;-78
2021/03/13 13:59:56;;;;;;;1.50;1.40;;;8.60;99.90;;;;;;10495229;28;20261;-78
2021/03/13 14:04:57;;;;;;;1.20;1.20;;;8.40;99.90;;;;;;10460123;28;20208;-78
2021/03/13 14:10:00;;;;;;;1.57;1.50;;;8.30;99.90;;;;;;10475843;28;20243;-78
2021/03/13 14:15:02;;;;;;;1.67;1.60;;;8.40;99.90;;;;;;10486011;28;20738;-77
2021/03/13 14:20:05;;;;;;;1.27;1.20;;;8.40;99.90;;;;;;10517474;28;20315;-77
2021/03/13 14:25:09;;;;;;;1.73;1.30;;;8.50;99.90;;;;;;10475750;28;20221;-79
2021/03/13 14:30:12;;;;;;;1.10;1.10;;;8.70;99.90;;;;;;10490141;28;20208;-79
2021/03/13 14:35:17;;;;;;;1.10;1.00;;;8.70;99.90;;;;;;10439966;28;20224;-78
2021/03/13 14:40:20;;;;;;;1.17;1.00;;;8.70;99.90;;;;;;10452277;28;20556;-79
2021/03/13 14:45:22;;;;;;;1.00;0.90;;;8.70;99.90;;;;;;10491258;28;20691;-79
2021/03/13 14:50:24;;;;;;;1.40;1.30;;;8.60;99.90;;;;;;10456353;28;20578;-78
2021/03/13 14:55:27;;;;;;;1.07;1.00;;;8.60;99.90;;;;;;10471970;28;20213;-79
2021/03/13 15:00:29;;;;;;;1.00;1.00;;;8.60;99.90;;;;;;10503337;28;20910;-78
2021/03/13 15:05:31;;;;;;;0.87;0.87;;;8.60;99.90;;;;;;10482225;28;20263;-78
2021/03/13 15:10:33;;;;;;;0.80;0.80;;;8.50;99.00;;;;;;10487138;28;20544;-78
2021/03/13 15:15:35;;;;;;;1.03;0.80;;;8.40;98.60;;;;;;10512267;28;20299;-78
2021/03/13 15:20:37;;;;;;;1.33;1.10;;;8.20;98.20;;;;;;10473583;28;20287;-78
2021/03/13 15:25:40;;;;;;;1.07;0.97;;;8.00;98.70;;;;;;10490938;28;20308;-78
2021/03/13 15:30:42;;;;;;;1.57;1.17;;;7.90;98.50;;;;;;10481058;28;20204;-79
2021/03/13 15:35:44;;;;;;;0.80;0.80;;;7.90;99.20;;;;;;10477628;28;20785;-77
2021/03/13 15:40:46;;;;;;;1.20;1.10;;;7.60;99.40;;;;;;10497833;28;20280;-78
2021/03/13 15:45:48;;;;;;;1.53;1.03;;;7.40;99.90;;;;;;10489410;28;20216;-78
2021/03/13 15:50:55;;;;;;;1.23;0.97;;;7.20;99.90;;;;;;10462360;28;20204;-79
2021/03/13 15:55:57;;;;;;;1.43;1.33;;;7.10;99.90;;;;;;10488359;28;20224;-80
2021/03/13 16:01:01;;;;;;;0.90;0.90;;;7.10;99.90;;;;;;10485003;28;20208;-79
2021/03/13 16:06:18;;;;;;;1.33;1.20;;;7.10;99.90;;;;;;10480905;28;20212;-79
2021/03/13 16:11:20;;;;;;;0.97;0.90;;;7.20;99.90;;;;;;10484847;28;20573;-79
2021/03/13 16:16:22;;;;;;;1.17;1.00;;;7.30;99.90;;;;;;10493251;28;20219;-78
2021/03/13 16:21:36;;;;;;;0.87;0.87;;;7.40;99.90;;;;;;10512630;28;20200;-78
2021/03/13 16:26:39;;;;;;;1.10;1.10;;;7.50;99.90;;;;;;10482720;28;20224;-78
2021/03/13 16:31:52;;;;;;;1.37;1.20;;;7.60;99.90;;;;;;10485619;28;20224;-78
2021/03/13 16:36:57;;;;;;;1.37;1.10;;;7.70;99.80;;;;;;10493910;28;20604;-78
2021/03/13 16:41:59;;;;;;;3.50;1.60;;;7.70;99.60;;;;;;10487755;28;20196;-78
2021/03/13 16:47:07;;;;;;;1.00;1.00;;;7.70;99.80;;;;;;10457527;28;20224;-78
2021/03/13 16:52:14;;;;;;;14.43;2.90;;;7.80;98.90;;;;;;10454078;28;20685;-78
2021/03/13 16:57:17;;;;;;;0.90;0.90;;;7.80;99.00;;;;;;10482897;28;20254;-80
2021/03/13 17:02:21;;;;;;;1.30;1.00;;;7.60;98.60;;;;;;10467499;28;20667;-78
2021/03/13 17:07:22;;;;;;;1.20;1.20;;;7.50;98.70;;;;;;10475688;28;20308;-78
2021/03/13 17:12:25;;;;;;;1.47;1.37;;;7.40;98.60;;;;;;10473504;28;20201;-78
2021/03/13 17:17:27;;;;;;;1.97;1.30;;;7.40;98.40;;;;;;10471512;28;20262;-79
2021/03/13 17:22:35;;;;;;;1.40;1.30;;;7.30;98.80;;;;;;10492328;28;20654;-79
2021/03/13 17:27:39;;;;;;;1.33;1.23;;;7.30;98.80;;;;;;10468428;28;20216;-79
2021/03/13 17:32:44;;;;;;;2.37;1.30;;;7.30;99.20;;;;;;10500881;28;20201;-78
2021/03/13 17:37:46;;;;;;;1.47;1.27;;;7.30;98.80;;;;;;10475924;28;20224;-78
2021/03/13 17:43:06;;;;;;;1.47;1.37;;;7.30;98.90;;;;;;10479838;28;20224;-78
2021/03/13 17:48:09;;;;;;;1.37;1.27;;;7.40;98.80;;;;;;10504603;28;20228;-78
2021/03/13 17:53:11;;;;;;;2.60;1.77;;;7.40;98.20;;;;;;10495904;28;20224;-78
2021/03/13 17:58:14;;;;;;;2.87;1.13;;;7.20;98.20;;;;;;10505957;28;20734;-78
2021/03/13 18:03:19;;;;;;;2.53;1.93;;;7.30;98.30;;;;;;10484513;28;20635;-78
2021/03/13 18:08:24;;;;;;;2.37;1.50;;;7.30;98.40;;;;;;10530974;28;20277;-79
2021/03/13 18:13:27;;;;;;;1.70;1.60;;;7.30;98.60;;;;;;10500199;28;20211;-79
2021/03/13 18:18:30;;;;;;;4.17;1.63;;;7.40;98.10;;;;;;10518361;28;20283;-78
2021/03/13 18:23:33;;;;;;;2.60;1.70;;;7.40;98.00;;;;;;10505322;28;20291;-78
2021/03/13 18:28:37;;;;;;;1.80;1.70;;;7.40;98.30;;;;;;10511918;28;20269;-79
2021/03/13 18:33:43;;;;;;;3.40;1.40;;;7.50;97.70;;;;;;10484077;28;20253;-79
2021/03/13 18:38:54;;;;;;;2.93;2.03;;;7.50;98.60;;;;;;10493369;28;20307;-78
2021/03/13 18:44:00;;;;;;;4.37;2.03;;;7.50;98.20;;;;;;10465877;28;20385;-78
2021/03/13 18:49:02;;;;;;;5.33;2.10;;;7.60;98.80;;;;;;10470424;28;20215;-79
2021/03/13 18:54:04;;;;;;;3.07;2.00;;;7.60;98.60;;;;;;10484441;28;20724;-79
2021/03/13 18:59:17;;;;;;;2.80;1.93;;;7.60;99.40;;;;;;10482779;28;20269;-79
2021/03/13 19:04:19;;;;;;;1.80;1.60;;;7.70;99.90;;;;;;10453294;28;20622;-80
2021/03/13 19:09:22;;;;;;;3.00;1.60;;;7.70;99.40;;;;;;10472193;28;20234;-79
2021/03/13 19:14:24;;;;;;;3.03;1.80;;;7.80;99.20;;;;;;10490239;28;20258;-79
2021/03/13 19:19:26;;;;;;;2.13;1.57;;;7.80;99.00;;;;;;10481188;28;20229;-79
2021/03/13 19:24:29;;;;;;;2.60;1.57;;;7.80;99.70;;;;;;10469499;28;20333;-80
2021/03/13 19:29:58;;;;;;;5.67;2.30;;;7.80;98.70;;;;;;10514360;28;20220;-78
2021/03/13 19:35:00;;;;;;;3.23;1.90;;;7.80;98.90;;;;;;10484283;28;20205;-79
2021/03/13 19:40:01;;;;;;;1.87;1.77;;;7.80;98.10;;;;;;10497516;28;20590;-78
2021/03/13 19:45:06;;;;;;;2.27;1.53;;;7.80;98.20;;;;;;10497582;28;20239;-78
2021/03/13 19:50:08;;;;;;;3.13;2.07;;;7.80;97.90;;;;;;10479311;28;20212;-78
2021/03/13 19:55:12;;;;;;;1.97;1.27;;;7.80;97.70;;;;;;10490765;28;20680;-79
2021/03/13 20:00:16;;;;;;;3.47;1.90;;;7.70;97.60;;;;;;10473295;28;20633;-78
2021/03/13 20:05:18;;;;;;;3.67;1.90;;;7.80;98.00;;;;;;10487124;28;20193;-78
2021/03/13 20:10:20;;;;;;;2.50;1.03;;;7.80;98.70;;;;;;10490939;28;20200;-78
2021/03/13 20:15:25;;;;;;;2.53;1.73;;;7.90;98.80;;;;;;10476273;28;20703;-79
2021/03/13 20:20:26;;;;;;;2.20;1.53;;;8.10;98.60;;;;;;10501777;28;20208;-78
2021/03/13 20:25:28;;;;;;;3.33;2.00;;;8.10;98.00;;;;;;10500222;28;20226;-79
2021/03/13 20:30:31;;;;;;;2.63;1.60;;;8.20;98.40;;;;;;10504841;28;20200;-79
2021/03/13 20:35:33;;;;;;;3.70;1.67;;;8.30;98.50;;;;;;10475976;28;20734;-79
2021/03/13 20:40:35;;;;;;;2.13;1.93;;;8.30;98.20;;;;;;10505201;28;20200;-79
2021/03/13 20:45:38;;;;;;;2.93;1.90;;;8.30;98.20;;;;;;10485880;28;20679;-80
2021/03/13 20:50:40;;;;;;;2.03;1.70;;;8.20;98.60;;;;;;10454322;28;20203;-79
2021/03/13 20:55:42;;;;;;;2.07;1.87;;;8.20;98.80;;;;;;10476406;28;20278;-79
2021/03/13 21:00:45;;;;;;;1.87;1.77;;;8.20;98.20;;;;;;10480914;28;20659;-79
2021/03/13 21:05:47;;;;;;;2.00;1.90;;;8.10;98.30;;;;;;10462230;28;20295;-79
2021/03/13 21:10:49;;;;;;;3.90;2.00;;;8.00;98.40;;;;;;10460644;28;20227;-79
2021/03/13 21:15:51;;;;;;;5.30;2.67;;;7.90;98.30;;;;;;10472324;28;20224;-79
2021/03/13 21:20:53;;;;;;;1.43;1.33;;;7.80;99.30;;;;;;10468295;28;20201;-79
2021/03/13 21:25:54;;;;;;;1.40;1.30;;;7.80;98.80;;;;;;10472017;28;20227;-80
2021/03/13 21:30:57;;;;;;;3.07;1.67;;;7.80;98.70;;;;;;10473968;28;20927;-79
2021/03/13 21:35:59;;;;;;;1.17;1.00;;;7.80;98.90;;;;;;10500961;28;20262;-78
2021/03/13 21:41:00;;;;;;;1.40;1.30;;;7.80;98.60;;;;;;10452811;28;20292;-78
2021/03/13 21:46:03;;;;;;;1.00;0.70;;;7.80;98.80;;;;;;10467510;28;20212;-78
2021/03/13 21:51:06;;;;;;;1.20;0.80;;;7.70;98.60;;;;;;10452858;28;20240;-78
2021/03/13 21:56:07;;;;;;;1.10;1.00;;;7.80;98.20;;;;;;10454560;28;20604;-78
2021/03/13 22:01:10;;;;;;;3.80;1.20;;;7.60;98.70;;;;;;10474754;28;20192;-78
2021/03/13 22:06:11;;;;;;;1.30;0.83;;;7.40;99.50;;;;;;10476688;28;20220;-78
2021/03/13 22:11:13;;;;;;;1.27;0.90;;;7.30;99.90;;;;;;10460046;28;20280;-78
2021/03/13 22:16:16;;;;;;;1.20;1.07;;;7.10;99.90;;;;;;10489935;28;20736;-78
2021/03/13 22:21:18;;;;;;;1.43;0.90;;;7.00;99.90;;;;;;10475404;28;20213;-77
2021/03/13 22:26:19;;;;;;;1.00;1.00;;;6.90;99.90;;;;;;10481432;28;20219;-77
2021/03/13 22:31:22;;;;;;;1.40;1.30;;;6.90;99.90;;;;;;10503758;28;20723;-77
2021/03/13 22:36:25;;;;;;;2.93;1.17;;;6.90;99.90;;;;;;10488051;28;20228;-78
2021/03/13 22:41:26;;;;;;;1.20;1.00;;;6.80;99.90;;;;;;10479555;28;20716;-77
2021/03/13 22:46:29;;;;;;;1.00;1.00;;;6.70;99.90;;;;;;10481941;28;20307;-77
2021/03/13 22:51:30;;;;;;;1.47;0.90;;;6.50;99.90;;;;;;10475059;28;20841;-77
2021/03/13 22:56:32;;;;;;;1.00;0.90;;;6.40;99.90;;;;;;10468043;28;20234;-77
2021/03/13 23:01:34;;;;;;;1.00;0.90;;;6.40;99.90;;;;;;10455954;28;20201;-77
2021/03/13 23:06:36;;;;;;;0.70;0.70;;;6.40;99.90;;;;;;10497401;28;20224;-77
2021/03/13 23:11:38;;;;;;;1.10;0.73;;;6.30;99.90;;;;;;10476902;28;20205;-77
2021/03/13 23:16:41;;;;;;;0.70;0.70;;;6.20;99.90;;;;;;10487348;28;20307;-77
2021/03/13 23:21:43;;;;;;;2.37;1.03;;;6.20;99.90;;;;;;10488361;28;20201;-77
2021/03/13 23:26:44;;;;;;;1.03;0.87;;;6.20;99.90;;;;;;10487691;28;20278;-77
2021/03/13 23:31:47;;;;;;;0.90;0.90;;;6.10;99.90;;;;;;10475592;28;20213;-78
2021/03/13 23:36:49;;;;;;;1.37;0.80;;;6.20;99.90;;;;;;10491386;28;20272;-78
2021/03/13 23:41:50;;;;;;;0.93;0.93;;;6.30;99.90;;;;;;10480555;28;21018;-78
2021/03/13 23:46:53;;;;;;;2.20;0.90;;;6.30;99.90;;;;;;10474468;28;20570;-78
2021/03/13 23:51:54;;;;;;;0.90;0.90;;;6.30;99.90;;;;;;10502209;28;20207;-78
2021/03/13 23:56:56;;;;;;;0.80;0.80;;;6.30;99.90;;;;;;10473520;28;20362;-78
